Stainburn, United Kingdom
Current Conditions -  °F | °C
As of 3:50 PM on Friday 28 Nov 2014 (Local Time) from EGNM Reporting Station
Moderate Fog Moderate Fog  
Wind Chill: 44°   Ceiling: Unl
Heat Index: 48°   Visibility: 0.18mi
Dew Point: 48°   Wind: 9mph
Humidity: 100%   Direction: 70°ENE
Pressure: 29.74"   Gusts: NA
Location:  53.93°N, 1.62°W
Report Text: EGNM 281550Z 07008KT 040V110 0300 R32/0900 FG VV/// 09/09 Q1007
Loading
Personal Weather Stations






























Interactive Weather Map New forecast layout! Learn more

10-Day Weather Forecast

Advertisements
Track Severe Weather on mobile